Etusivu
METAR-TAF:

METAR-TAF

Lentoasemat :

Cumberland, Wisconsin, Yhdysvallat

Leveyspiiri: 45-30-21N, Pituuspiiri: 091-58-52W, korkeus merenpinnasta: 379 m

Tämänhetkinen sää

Tämä raportti tehtiin 26 minuuttia sitten, kello 04.15 UTC
Tuuli 8 kn pohjoisesta/koillisesta
Lämpötila 3°C
Kosteus 93%
Ilmanpaine 1019 hPa
Näkyvyys: 16.1 km
Hajanaisia pilviä 1000 ft:n korkeudessa

METAR: KUBE 230415Z AUTO 02008KT 10SM SCT010 03/02 A3008 RMK AO2

Aika: 23:41 (04:41 UTC)


TAF: puuttuu

Säähavainnot ja -ennusteet yli 4000 lentoasemalta (METAR- ja TAF-raportit).

Käytössä olevat sääasemat on merkitty karttaan keltaisilla ja punaisilla pisteillä.

Aseta hiiri pisteen päälle nähdäksesi sääaseman nimen.

Klikkaa sitten nähdäksesi säähavainnot ja -ennusteet.

Kartan vaihtaminen: klikkaa mustalla rastilla varustettuja vihreitä pisteitä, niin voit zoomata sisään; viivalla varustettua vihreää pistettä, niin voit zoomata ulos tai vihreitä nuolia, niin pääset viereisille kartoille.


METAR-TAF: